Flight Track Log - Related Links

Times and Time Zones

All times are in EST time to prevent confusion due to time zone crossing. See the FDX90 flight status page for this flight to view local times or setup timezone preferences in your user account.

Time Position Orientation Groundspeed Altitude Reporting Facility
EST Latitude Longitude Course Direction KTS MPH feet Rate Location/Type
Fri 11:40:18 AM 35.1864 139.1677 78° East 574 661 33,000  Level FlightAware ADS-B (EGKK / LGW)
Fri 11:40:48 AM 35.2043 139.2671 78° East 574 661 33,000  Level FlightAware ADS-B (EGKK / LGW)
Fri 11:41:18 AM 35.2213 139.3622 78° East 574 661 33,000  Level FlightAware ADS-B (EGKK / LGW)
Fri 11:41:49 AM 35.2381 139.4577 78° East 573 659 33,000  Level FlightAware ADS-B (EGKK / LGW)
Fri 11:42:32 AM 35.2617 139.5903 78° East 573 659 33,000  Level FlightAware ADS-B (EGKK / LGW)
Fri 11:43:04 AM 35.2794 139.6916 78° East 575 662 33,000  Level FlightAware ADS-B (EGKK / LGW)
Fri 11:45:00 AM 35.4996 139.9097 39° Northeast  Level Estimated
Fri 11:46:00 AM 35.6133 140.0229 39° Northeast  Level Estimated
Fri 11:47:00 AM 35.7270 140.1365 39° Northeast  Level Estimated
Fri 11:48:00 AM 35.8405 140.2504 39° Northeast  Level Estimated
Fri 11:49:00 AM 35.9539 140.3646 39° Northeast  Level Estimated
Fri 11:50:00 AM 36.0672 140.4792 39° Northeast  Level Estimated
Fri 11:51:00 AM 36.1804 140.5941 39° Northeast  Level Estimated
Fri 11:52:00 AM 36.2935 140.7093 39° Northeast  Level Estimated
Fri 11:53:00 AM 36.4064 140.8249 39° Northeast  Level Estimated
Fri 11:54:00 AM 36.5193 140.9408 40° Northeast  Level Estimated
Fri 11:55:00 AM 36.6320 141.0570 40° Northeast  Level Estimated
Fri 11:56:00 AM 36.7447 141.1736 40° Northeast  Level Estimated
Fri 11:57:00 AM 36.8572 141.2905 40° Northeast  Level Estimated
Fri 11:58:00 AM 36.9696 141.4077 40° Northeast  Level Estimated
Fri 11:59:00 AM 37.0819 141.5253 40° Northeast  Level Estimated
Fri 12:00:00 PM 37.1940 141.6433 40° Northeast  Level Estimated
Fri 12:01:00 PM 37.3061 141.7616 40° Northeast  Level Estimated
Fri 12:02:00 PM 37.4180 141.8802 40° Northeast  Level Estimated
Fri 12:03:00 PM 37.5299 141.9992 40° Northeast  Level Estimated
Fri 12:04:00 PM 37.6416 142.1186 40° Northeast  Level Estimated
Fri 12:05:00 PM 37.7531 142.2383 40° Northeast  Level Estimated
Fri 12:06:00 PM 37.8646 142.3584 40° Northeast  Level Estimated
Fri 12:07:00 PM 37.9759 142.4789 40° Northeast  Level Estimated
Fri 12:08:00 PM 38.0871 142.5997 41° Northeast  Level Estimated
Fri 12:09:00 PM 38.1982 142.7209 41° Northeast  Level Estimated
Fri 12:10:00 PM 38.3092 142.8424 41° Northeast  Level Estimated
Fri 12:11:00 PM 38.4200 142.9644 41° Northeast  Level Estimated
Fri 12:12:00 PM 38.5307 143.0867 41° Northeast  Level Estimated
Fri 12:13:00 PM 38.6413 143.2093 41° Northeast  Level Estimated
Fri 12:14:00 PM 38.7518 143.3324 41° Northeast  Level Estimated
Fri 12:15:00 PM 38.8621 143.4558 41° Northeast  Level Estimated
Fri 12:16:00 PM 38.9723 143.5797 41° Northeast  Level Estimated
Fri 12:17:00 PM 39.0823 143.7039 41° Northeast  Level Estimated
Fri 12:18:00 PM 39.1923 143.8285 41° Northeast  Level Estimated
Fri 12:19:00 PM 39.3021 143.9534 41° Northeast  Level Estimated
Fri 12:20:00 PM 39.4117 144.0788 41° Northeast  Level Estimated
Fri 12:21:00 PM 39.5213 144.2046 42° Northeast  Level Estimated
Fri 12:22:00 PM 39.6306 144.3308 42° Northeast  Level Estimated
Fri 12:23:00 PM 39.7399 144.4573 42° Northeast  Level Estimated
Fri 12:24:00 PM 39.8490 144.5843 42° Northeast  Level Estimated
Fri 12:25:00 PM 39.9580 144.7117 42° Northeast  Level Estimated
Fri 12:26:00 PM 40.0668 144.8395 42° Northeast  Level Estimated
Fri 12:27:00 PM 40.1755 144.9677 42° Northeast  Level Estimated
Fri 12:28:00 PM 40.2841 145.0963 42° Northeast  Level Estimated
Fri 12:29:00 PM 40.3925 145.2253 42° Northeast  Level Estimated
Fri 12:30:00 PM 40.5008 145.3547 42° Northeast  Level Estimated
Fri 12:31:00 PM 40.6089 145.4845 42° Northeast  Level Estimated
Fri 12:32:00 PM 40.7169 145.6148 42° Northeast  Level Estimated
Fri 12:33:00 PM 40.8247 145.7455 43° Northeast  Level Estimated
Fri 12:34:00 PM 40.9324 145.8766 43° Northeast  Level Estimated
Fri 12:35:00 PM 41.0399 146.0082 43° Northeast  Level Estimated
Fri 12:36:00 PM 41.1473 146.1402 43° Northeast  Level Estimated
Fri 12:37:00 PM 41.2545 146.2726 43° Northeast  Level Estimated
Fri 12:38:00 PM 41.3616 146.4054 43° Northeast  Level Estimated
Fri 12:39:00 PM 41.4685 146.5387 43° Northeast  Level Estimated
Fri 12:40:00 PM 41.5753 146.6724 43° Northeast  Level Estimated
Fri 12:41:00 PM 41.6819 146.8066 43° Northeast  Level Estimated
Fri 12:42:00 PM 41.7884 146.9412 43° Northeast  Level Estimated
Fri 12:43:00 PM 41.8947 147.0762 43° Northeast  Level Estimated
Fri 12:44:00 PM 42.0008 147.2117 43° Northeast  Level Estimated
Fri 12:45:00 PM 42.1068 147.3477 44° Northeast  Level Estimated
Fri 12:46:00 PM 42.2126 147.4841 44° Northeast  Level Estimated
Fri 12:47:00 PM 42.3183 147.6210 44° Northeast  Level Estimated
Fri 12:48:00 PM 42.4238 147.7583 44° Northeast  Level Estimated
Fri 12:49:00 PM 42.5291 147.8961 44° Northeast  Level Estimated
Fri 12:50:00 PM 42.6343 148.0344 44° Northeast  Level Estimated
Fri 12:51:00 PM 42.7393 148.1731 44° Northeast  Level Estimated
Fri 12:52:00 PM 42.8441 148.3123 44° Northeast  Level Estimated
Fri 12:53:00 PM 42.9488 148.4520 44° Northeast  Level Estimated
Fri 12:54:00 PM 43.0533 148.5921 44° Northeast  Level Estimated
Fri 12:55:00 PM 43.1576 148.7327 44° Northeast  Level Estimated
Fri 12:56:00 PM 43.2617 148.8738 45° Northeast  Level Estimated
Fri 12:57:00 PM 43.3657 149.0154 45° Northeast  Level Estimated
Fri 12:58:00 PM 43.4695 149.1575 45° Northeast  Level Estimated
Fri 12:59:00 PM 43.5731 149.3001 45° Northeast  Level Estimated
Fri 01:00:00 PM 43.6766 149.4431 45° Northeast  Level Estimated
Fri 01:01:00 PM 43.7798 149.5867 45° Northeast  Level Estimated
Fri 01:02:00 PM 43.8829 149.7307 45° Northeast  Level Estimated
Fri 01:03:00 PM 43.9858 149.8752 45° Northeast  Level Estimated
Fri 01:04:00 PM 44.0886 150.0203 45° Northeast  Level Estimated
Fri 01:05:00 PM 44.1911 150.1658 45° Northeast  Level Estimated
Fri 01:06:00 PM 44.2934 150.3119 46° Northeast  Level Estimated
Fri 01:07:00 PM 44.3956 150.4584 46° Northeast  Level Estimated
Fri 01:08:00 PM 44.4976 150.6055 46° Northeast  Level Estimated
Fri 01:09:00 PM 44.5994 150.7531 46° Northeast  Level Estimated
Fri 01:10:00 PM 44.7010 150.9012 46° Northeast  Level Estimated
Fri 01:11:00 PM 44.8024 151.0499 46° Northeast  Level Estimated
Fri 01:12:00 PM 44.9036 151.1990 46° Northeast  Level Estimated
Fri 01:13:00 PM 45.0046 151.3487 46° Northeast  Level Estimated
Fri 01:14:00 PM 45.1054 151.4989 46° Northeast  Level Estimated
Fri 01:15:00 PM 45.2061 151.6496 47° Northeast  Level Estimated
Fri 01:16:00 PM 45.3065 151.8009 47° Northeast  Level Estimated
Fri 01:17:00 PM 45.4067 151.9527 47° Northeast  Level Estimated
Fri 01:18:00 PM 45.5067 152.1050 47° Northeast  Level Estimated
Fri 01:19:00 PM 45.6065 152.2579 47° Northeast  Level Estimated
Fri 01:20:00 PM 45.7062 152.4114 47° Northeast  Level Estimated
Fri 01:21:00 PM 45.8056 152.5653 47° Northeast  Level Estimated
Fri 01:22:00 PM 45.9048 152.7199 47° Northeast  Level Estimated
Fri 01:23:00 PM 46.0037 152.8750 47° Northeast  Level Estimated
Fri 01:24:00 PM 46.1025 153.0306 47° Northeast  Level Estimated
Fri 01:25:00 PM 46.2011 153.1868 48° Northeast  Level Estimated
Fri 01:26:00 PM 46.2995 153.3435 48° Northeast  Level Estimated
Fri 01:27:00 PM 46.3976 153.5009 48° Northeast  Level Estimated
Fri 01:28:00 PM 46.4955 153.6588 48° Northeast  Level Estimated
Fri 01:29:00 PM 46.5932 153.8172 48° Northeast  Level Estimated
Fri 01:30:00 PM 46.6907 153.9762 48° Northeast  Level Estimated
Fri 01:31:00 PM 46.7880 154.1358 48° Northeast  Level Estimated
Fri 01:32:00 PM 46.8850 154.2960 48° Northeast  Level Estimated
Fri 01:33:00 PM 46.9818 154.4568 49° Northeast  Level Estimated
Fri 01:34:00 PM 47.0784 154.6181 49° Northeast  Level Estimated
Fri 01:35:00 PM 47.1748 154.7800 49° Northeast  Level Estimated
Fri 01:36:00 PM 47.2710 154.9426 49° Northeast  Level Estimated
Fri 01:37:00 PM 47.3669 155.1057 49° Northeast  Level Estimated
Fri 01:38:00 PM 47.4625 155.2693 49° Northeast  Level Estimated
Fri 01:39:00 PM 47.5580 155.4336 49° Northeast  Level Estimated
Fri 01:40:00 PM 47.6532 155.5985 49° Northeast  Level Estimated
Fri 01:41:00 PM 47.7481 155.7640 49° Northeast  Level Estimated
Fri 01:42:00 PM 47.8429 155.9301 50° Northeast  Level Estimated
Fri 01:43:00 PM 47.9374 156.0968 50° Northeast  Level Estimated
Fri 01:44:00 PM 48.0316 156.2641 50° Northeast  Level Estimated
Fri 01:45:00 PM 48.1256 156.4321 50° Northeast  Level Estimated
Fri 01:46:00 PM 48.2194 156.6006 50° Northeast  Level Estimated
Fri 01:47:00 PM 48.3129 156.7698 50° Northeast  Level Estimated
Fri 01:48:00 PM 48.4061 156.9396 50° Northeast  Level Estimated
Fri 01:49:00 PM 48.4991 157.1100 50° Northeast  Level Estimated
Fri 01:50:00 PM 48.5919 157.2810 51° Northeast  Level Estimated
Fri 01:51:00 PM 48.6844 157.4527 51° Northeast  Level Estimated
Fri 01:52:00 PM 48.7767 157.6249 51° Northeast  Level Estimated
Fri 01:53:00 PM 48.8686 157.7979 51° Northeast  Level Estimated
Fri 01:54:00 PM 48.9604 157.9714 51° Northeast  Level Estimated
Fri 01:55:00 PM 49.0518 158.1456 51° Northeast  Level Estimated
Fri 01:56:00 PM 49.1431 158.3205 51° Northeast  Level Estimated
Fri 01:57:00 PM 49.2340 158.4959 52° Northeast  Level Estimated
Fri 01:58:00 PM 49.3247 158.6721 52° Northeast  Level Estimated
Fri 01:59:00 PM 49.4151 158.8488 52° Northeast  Level Estimated
Fri 02:00:00 PM 49.5052 159.0263 52° Northeast  Level Estimated
Fri 02:01:00 PM 49.5951 159.2044 52° Northeast  Level Estimated
Fri 02:02:00 PM 49.6847 159.3831 52° Northeast  Level Estimated
Fri 02:03:00 PM 49.7740 159.5625 52° Northeast  Level Estimated
Fri 02:04:00 PM 49.8630 159.7426 52° Northeast  Level Estimated
Fri 02:05:00 PM 49.9517 159.9233 53° Northeast  Level Estimated
Fri 02:06:00 PM 50.0402 160.1047 53° Northeast  Level Estimated
Fri 02:07:00 PM 50.1284 160.2867 53° Northeast  Level Estimated
Fri 02:08:00 PM 50.2163 160.4695 53° Northeast  Level Estimated
Fri 02:09:00 PM 50.3039 160.6529 53° Northeast  Level Estimated
Fri 02:10:00 PM 50.3912 160.8369 53° Northeast  Level Estimated
Fri 02:11:00 PM 50.4783 161.0217 53° Northeast  Level Estimated
Fri 02:12:00 PM 50.5650 161.2071 54° Northeast  Level Estimated
Fri 02:13:00 PM 50.6515 161.3933 54° Northeast  Level Estimated
Fri 02:14:00 PM 50.7376 161.5801 54° Northeast  Level Estimated
Fri 02:15:00 PM 50.8234 161.7675 54° Northeast  Level Estimated
Fri 02:16:00 PM 50.9090 161.9557 54° Northeast  Level Estimated
Fri 02:17:00 PM 50.9942 162.1446 54° Northeast  Level Estimated
Fri 02:18:00 PM 51.0792 162.3342 54° Northeast  Level Estimated
Fri 02:19:00 PM 51.1638 162.5244 55° Northeast  Level Estimated
Fri 02:20:00 PM 51.2481 162.7154 55° Northeast  Level Estimated
Fri 02:21:00 PM 51.3321 162.9070 55° Northeast  Level Estimated
Fri 02:22:00 PM 51.4158 163.0994 55° Northeast  Level Estimated
Fri 02:23:00 PM 51.4992 163.2925 55° Northeast  Level Estimated
Fri 02:24:00 PM 51.5823 163.4863 55° Northeast  Level Estimated
Fri 02:25:00 PM 51.6650 163.6807 56° Northeast  Level Estimated
Fri 02:26:00 PM 51.7474 163.8759 56° Northeast  Level Estimated
Fri 02:27:00 PM 51.8295 164.0718 56° Northeast  Level Estimated
Fri 02:28:00 PM 51.9113 164.2684 56° Northeast  Level Estimated
Fri 02:29:00 PM 51.9927 164.4658 56° Northeast  Level Estimated
Fri 02:30:00 PM 52.0738 164.6638 56° Northeast  Level Estimated
Fri 02:31:00 PM 52.1546 164.8626 56° Northeast  Level Estimated
Fri 02:32:00 PM 52.2351 165.0621 57° Northeast  Level Estimated
Fri 02:33:00 PM 52.3152 165.2623 57° Northeast  Level Estimated
Fri 02:34:00 PM 52.3949 165.4633 57° Northeast  Level Estimated
Fri 02:35:00 PM 52.4743 165.6649 57° Northeast  Level Estimated
Fri 02:36:00 PM 52.5534 165.8673 57° Northeast  Level Estimated
Fri 02:37:00 PM 52.6321 166.0704 57° Northeast  Level Estimated
Fri 02:38:00 PM 52.7105 166.2743 58° Northeast  Level Estimated
Fri 02:39:00 PM 52.7885 166.4789 58° Northeast  Level Estimated
Fri 02:40:00 PM 52.8662 166.6842 58° Northeast  Level Estimated
Fri 02:41:00 PM 52.9435 166.8902 58° Northeast  Level Estimated
Fri 02:42:00 PM 53.0205 167.0970 58° Northeast  Level Estimated
Fri 02:43:00 PM 53.0971 167.3046 58° Northeast  Level Estimated
Fri 02:44:00 PM 53.1733 167.5128 59° Northeast  Level Estimated
Fri 02:45:00 PM 53.2492 167.7218 59° Northeast  Level Estimated
Fri 02:46:00 PM 53.3247 167.9316 59° Northeast  Level Estimated
Fri 02:47:00 PM 53.3999 168.1421 59° Northeast  Level Estimated
Fri 02:48:00 PM 53.4746 168.3533 59° Northeast  Level Estimated
Fri 02:49:00 PM 53.5490 168.5653 59° Northeast  Level Estimated
Fri 02:50:00 PM 53.6231 168.7780 60° Northeast  Level Estimated
Fri 02:51:00 PM 53.6967 168.9915 60° Northeast  Level Estimated
Fri 02:52:00 PM 53.7700 169.2057 60° Northeast  Level Estimated
Fri 02:53:00 PM 53.8428 169.4207 60° Northeast  Level Estimated
Fri 02:54:00 PM 53.9153 169.6364 60° Northeast  Level Estimated
Fri 02:55:00 PM 53.9874 169.8528 60° Northeast  Level Estimated
Fri 02:56:00 PM 54.0591 170.0700 61° Northeast  Level Estimated
Fri 02:57:00 PM 54.1305 170.2880 61° Northeast  Level Estimated
Fri 02:58:00 PM 54.2014 170.5067 61° Northeast  Level Estimated
Fri 02:59:00 PM 54.2719 170.7261 61° Northeast  Level Estimated
Fri 03:00:00 PM 54.3420 170.9463 61° Northeast  Level Estimated
Fri 03:01:00 PM 54.4118 171.1673 61° Northeast  Level Estimated
Fri 03:02:00 PM 54.4811 171.3890 62° Northeast  Level Estimated
Fri 03:03:00 PM 54.5500 171.6114 62° Northeast  Level Estimated
Fri 03:04:00 PM 54.6185 171.8346 62° Northeast  Level Estimated
Fri 03:05:00 PM 54.6866 172.0586 62° Northeast  Level Estimated
Fri 03:06:00 PM 54.7543 172.2833 62° Northeast  Level Estimated
Fri 03:07:00 PM 54.8215 172.5088 63° Northeast  Level Estimated
Fri 03:08:00 PM 54.8884 172.7350 63° Northeast  Level Estimated
Fri 03:09:00 PM 54.9548 172.9619 63° Northeast  Level Estimated
Fri 03:10:00 PM 55.0208 173.1896 63° Northeast  Level Estimated
Fri 03:11:00 PM 55.0863 173.4181 63° Northeast  Level Estimated
Fri 03:12:00 PM 55.1515 173.6473 63° Northeast  Level Estimated
Fri 03:13:00 PM 55.2162 173.8772 64° Northeast  Level Estimated
Fri 03:14:00 PM 55.2805 174.1079 64° Northeast  Level Estimated
Fri 03:15:00 PM 55.3443 174.3394 64° Northeast  Level Estimated
Fri 03:16:00 PM 55.4077 174.5716 64° Northeast  Level Estimated
Fri 03:17:00 PM 55.4707 174.8045 64° Northeast  Level Estimated
Fri 03:18:00 PM 55.5332 175.0382 65° Northeast  Level Estimated
Fri 03:19:00 PM 55.5953 175.2726 65° Northeast  Level Estimated
Fri 03:20:00 PM 55.6569 175.5077 65° Northeast  Level Estimated
Fri 03:21:00 PM 55.7181 175.7436 65° Northeast  Level Estimated
Fri 03:22:00 PM 55.7788 175.9802 65° Northeast  Level Estimated
Fri 03:23:00 PM 55.8390 176.2176 66° East  Level Estimated
Fri 03:24:00 PM 55.8988 176.4557 66° East  Level Estimated
Fri 03:25:00 PM 55.9582 176.6945 66° East  Level Estimated
Fri 03:26:00 PM 56.0171 176.9341 66° East  Level Estimated
Fri 03:27:00 PM 56.0755 177.1744 66° East  Level Estimated
Fri 03:28:00 PM 56.1334 177.4154 67° East  Level Estimated
Fri 03:29:00 PM 56.1909 177.6571 67° East  Level Estimated
Fri 03:30:00 PM 56.2479 177.8996 67° East  Level Estimated
Fri 03:31:00 PM 56.3044 178.1428 67° East  Level Estimated
Fri 03:32:00 PM 56.3605 178.3867 67° East  Level Estimated
Fri 03:33:00 PM 56.4160 178.6313 68° East  Level Estimated
Fri 03:34:00 PM 56.4711 178.8766 68° East  Level Estimated
Fri 03:35:00 PM 56.5257 179.1227 68° East  Level Estimated
Fri 03:36:00 PM 56.5798 179.3694 68° East  Level Estimated
Fri 03:37:00 PM 56.6335 179.6169 68° East  Level Estimated
Fri 03:38:00 PM 56.6866 179.8650 69° East  Level Estimated
Fri 03:39:00 PM 56.7392 -179.8861 69° East  Level Estimated
Fri 03:40:00 PM 56.7914 -179.6366 69° East  Level Estimated
Fri 03:41:00 PM 56.8430 -179.3864 69° East  Level Estimated
Fri 03:42:00 PM 56.8942 -179.1354 69° East  Level Estimated
Fri 03:43:00 PM 56.9448 -178.8838 70° East  Level Estimated
Fri 03:44:00 PM 56.9949 -178.6315 70° East  Level Estimated
Fri 03:45:00 PM 57.0445 -178.3786 70° East  Level Estimated
Fri 03:46:00 PM 57.0937 -178.1249 70° East  Level Estimated
Fri 03:47:00 PM 57.1422 -177.8706 71° East  Level Estimated
Fri 03:48:00 PM 57.1903 -177.6156 71° East  Level Estimated
Fri 03:49:00 PM 57.2379 -177.3600 71° East  Level Estimated
Fri 03:50:00 PM 57.2849 -177.1037 71° East  Level Estimated
Fri 03:51:00 PM 57.3314 -176.8468 71° East  Level Estimated
Fri 03:52:00 PM 57.3774 -176.5892 72° East  Level Estimated
Fri 03:53:00 PM 57.4229 -176.3310 72° East  Level Estimated
Fri 03:54:00 PM 57.4678 -176.0721 72° East  Level Estimated
Fri 03:55:00 PM 57.5122 -175.8126 72° East  Level Estimated
Fri 03:56:00 PM 57.5561 -175.5524 72° East  Level Estimated
Fri 03:57:00 PM 57.5994 -175.2917 73° East  Level Estimated
Fri 03:58:00 PM 57.6422 -175.0303 73° East  Level Estimated
Fri 03:59:00 PM 57.6845 -174.7683 73° East  Level Estimated
Fri 04:00:00 PM 57.7262 -174.5057 73° East  Level Estimated
Fri 04:01:00 PM 57.7674 -174.2425 74° East  Level Estimated
Fri 04:02:00 PM 57.8080 -173.9787 74° East  Level Estimated
Fri 04:03:00 PM 57.8481 -173.7143 74° East  Level Estimated
Fri 04:04:00 PM 57.8876 -173.4494 74° East  Level Estimated
Fri 04:05:00 PM 57.9266 -173.1838 74° East  Level Estimated
Fri 04:06:00 PM 57.9650 -172.9177 75° East  Level Estimated
Fri 04:07:00 PM 58.0028 -172.6510 75° East  Level Estimated
Fri 04:08:00 PM 58.0401 -172.3837 75° East  Level Estimated
Fri 04:09:00 PM 58.0769 -172.1159 75° East  Level Estimated
Fri 04:10:00 PM 58.1130 -171.8476 76° East  Level Estimated
Fri 04:11:00 PM 58.1487 -171.5787 76° East  Level Estimated
Fri 04:11:19 PM 45.0667 -167.9833 88° East 540 621 33,000  Level Oakland Oceanic (ODAPS)
Fri 04:25:12 PM 45.1167 -165.1167 90° East 547 629 33,000  Level Oakland Oceanic (ODAPS)
Fri 04:39:05 PM 45.0667 -162.1167 92° East 558 642 33,000  Level Oakland Oceanic (ODAPS)
Fri 04:49:00 PM 45.0000 -160.0000 94° East 554 638 33,000  Level Oakland Oceanic (ODAPS)
Fri 04:52:56 PM 44.9500 -159.1167 95° East 550 633 33,000  Level Oakland Oceanic (ODAPS)
Fri 05:06:48 PM 44.7167 -156.1167 97° East 568 654 33,000  Level Oakland Oceanic (ODAPS)
Fri 05:20:41 PM 44.4000 -152.9833 100° East 593 682 33,000  Level Oakland Oceanic (ODAPS)
Fri 05:35:25 PM 44.0000 -150.0000 94° East 555 639 33,000  Level Oakland Oceanic (ODAPS)
Fri 05:35:40 PM 44.0000 -149.9667 94° East 555 639 33,000  Level Oakland Oceanic (ODAPS)
Fri 05:48:25 PM 43.8000 -146.9833 97° East 561 646 33,000  Level Oakland Oceanic (ODAPS)
Fri 06:02:17 PM 43.5000 -143.9833 98° East 570 656 33,000  Level Oakland Oceanic (ODAPS)
Fri 06:16:10 PM 43.1333 -140.9833 100° East 579 666 33,000  Level Oakland Oceanic (ODAPS)
Fri 06:20:55 PM 43.0000 -140.0000 102° East 556 640 33,000  Level Oakland Oceanic (ODAPS)
Fri 06:30:02 PM 42.6833 -138.0500 103° East 550 633 33,000  Level Oakland Oceanic (ODAPS)
Fri 06:43:54 PM 42.1667 -135.2167 105° East 540 621 33,000  Level Oakland Oceanic (ODAPS)
Fri 06:57:47 PM 41.6167 -132.5833 107° East 520 598 33,000 143 Level Oakland Oceanic (ODAPS)
Fri 07:11:47 PM 41.0000 -130.0000 109° East 541 623 37,000 282 Climbing Oakland Oceanic (ODAPS)
Fri 07:11:57 PM 40.9833 -129.9500 109° East 541 623 37,000  Level Oakland Oceanic (ODAPS)
Fri 07:12:00 PM 41.6936 -129.6875 89° East  Level Estimated
Fri 07:12:07 PM 40.9667 -129.8667 110° East 543 625 37,000  Level Oakland Oceanic (ODAPS)
Fri 07:24:50 PM 40.2972 -127.4817 110° East 550 633 37,000  Level Oakland Center
Fri 07:25:00 PM 40.2630 -127.3782 111° Southeast 543 625 37,000  Level FlightAware Transoceanic
Fri 07:25:31 PM 40.2667 -127.3667 112° Southeast 551 634 37,000  Level Oakland Oceanic (ODAPS)
Fri 07:26:00 PM 40.2066 -127.1889 111° Southeast 543 625 37,000  Level FlightAware Transoceanic
Fri 07:26:53 PM 40.1858 -127.1108 112° Southeast 549 632 37,000  Level Oakland Center
Fri 07:27:00 PM 40.1500 -127.0000 110° East 543 625 37,000  Level FlightAware Transoceanic
Fri 07:27:54 PM 40.1281 -126.9239 112° Southeast 552 635 37,000  Level Oakland Center
Fri 07:28:00 PM 40.1004 -126.8195 110° East 543 625 37,000  Level FlightAware Transoceanic
Fri 07:28:55 PM 40.0856 -126.7306 106° East 555 639 37,000  Level Oakland Center
Fri 07:29:00 PM 40.0504 -126.6394 110° East 543 625 37,000  Level FlightAware Transoceanic
Fri 07:29:57 PM 40.0611 -126.5353 99° East 549 632 37,000  Level Oakland Center
Fri 07:30:00 PM 40.0002 -126.4594 110° East 543 625 37,000  Level FlightAware Transoceanic
Fri 07:30:58 PM 40.0344 -126.3389 100° East 551 634 37,000  Level Oakland Center
Fri 07:31:59 PM 40.0056 -126.1439 101° East 550 633 37,000  Level Oakland Center
Fri 07:33:01 PM 39.9789 -125.9478 100° East 551 634 37,000  Level Oakland Center
Fri 07:34:02 PM 39.9450 -125.7164 101° East 546 628 37,000  Level Oakland Center
Fri 07:35:03 PM 39.9183 -125.5225 100° East 546 628 37,000  Level Oakland Center
Fri 07:36:04 PM 39.8897 -125.3286 101° East 548 631 37,000  Level Oakland Center
Fri 07:37:06 PM 39.8617 -125.1339 101° East 549 632 37,000  Level Oakland Center
Fri 07:38:07 PM 39.8325 -124.9411 101° East 547 629 37,000  Level Oakland Center
Fri 07:39:08 PM 39.8033 -124.7472 101° East 549 632 37,000  Level Oakland Center
Fri 07:40:10 PM 39.7744 -124.5539 101° East 551 634 37,000  Level Oakland Center
Fri 07:41:11 PM 39.7444 -124.3603 101° East 552 635 37,000  Level Oakland Center
Fri 07:42:12 PM 39.7086 -124.1286 101° East 549 632 37,000  Level Oakland Center
Fri 07:43:14 PM 39.6786 -123.9381 102° East 545 627 37,000  Level Oakland Center
Fri 07:44:15 PM 39.6478 -123.7494 102° East 540 621 37,000 -49 Level Oakland Center
Fri 07:45:16 PM 39.6164 -123.5614 102° East 538 619 36,900  Descending Oakland Center
Fri 07:46:18 PM 39.5858 -123.3731 102° East 537 618 37,000 49 Climbing Oakland Center
Fri 07:47:19 PM 39.5553 -123.1853 102° East 539 620 37,000  Level Oakland Center
Fri 07:48:20 PM 39.5172 -122.9603 102° East 539 620 37,000  Level Oakland Center
Fri 07:49:22 PM 39.4853 -122.7725 102° East 541 623 37,000  Level Oakland Center
Fri 07:55:05 PM 39.3738 -122.1350 102° East 533 613 37,000  Level FlightAware ADS-B
Fri 07:57:14 PM 39.2602 -121.5046 103° East 534 615 37,000  Level FlightAware ADS-B
Fri 07:58:34 PM 39.1757 -121.0493 103° East 537 618 37,000  Level FlightAware ADS-B
Fri 07:59:15 PM 39.1516 -120.9213 104° East 537 618 37,000  Level FlightAware ADS-B
Fri 07:59:50 PM 39.1312 -120.8132 104° East 538 619 37,000  Level FlightAware ADS-B
Fri 08:00:30 PM 39.1076 -120.6895 104° East 537 618 37,000  Level FlightAware ADS-B
Fri 08:01:10 PM 39.0838 -120.5653 104° East 538 619 37,000  Level FlightAware ADS-B
Fri 08:01:50 PM 39.0599 -120.4413 104° East 539 620 37,000  Level FlightAware ADS-B
Fri 08:02:30 PM 39.0355 -120.3157 104° East 541 623 37,000  Level FlightAware ADS-B
Fri 08:03:10 PM 39.0112 -120.1918 104° East 543 625 37,000  Level FlightAware ADS-B
Fri 08:03:46 PM 38.9891 -120.0794 104° East 545 627 37,000  Level FlightAware ADS-B
Fri 08:04:25 PM 38.9649 -119.9570 104° East 545 627 37,000  Level FlightAware ADS-B
Fri 08:05:02 PM 38.9417 -119.8405 104° East 546 628 37,000  Level FlightAware ADS-B
Fri 08:05:42 PM 38.9168 -119.7162 104° East 543 625 37,000  Level FlightAware ADS-B
Fri 08:06:12 PM 38.8979 -119.6217 104° East 542 624 37,000  Level FlightAware ADS-B
Fri 08:06:54 PM 38.8715 -119.4914 105° East 542 624 37,000  Level FlightAware ADS-B
Fri 08:07:26 PM 38.8511 -119.3916 105° East 542 624 37,000  Level FlightAware ADS-B
Fri 08:08:06 PM 38.8258 -119.2676 105° East 545 627 37,000  Level FlightAware ADS-B
Fri 08:08:38 PM 38.8053 -119.1674 105° East 544 626 37,000  Level FlightAware ADS-B
Fri 08:09:18 PM 38.7799 -119.0442 105° East 542 624 37,000  Level FlightAware ADS-B
Fri 08:09:54 PM 38.7566 -118.9327 105° East 543 625 37,000  Level FlightAware ADS-B
Fri 08:10:26 PM 38.7359 -118.8331 105° East 543 625 37,000  Level FlightAware ADS-B
Fri 08:11:01 PM 38.7192 -118.7517 105° East 543 625 37,000  Level Salt Lake Center
Fri 08:11:52 PM 38.6883 -118.6025 105° East 549 632 37,000  Level Oakland Center
Fri 08:12:53 PM 38.6417 -118.3786 105° East 547 629 37,000  Level Oakland Center
Fri 08:13:55 PM 38.6006 -118.1944 106° East 543 625 37,000  Level Oakland Center
Fri 08:19:24 PM 38.4981 -117.1341 106° East 546 628 37,000  Level FlightAware ADS-B (EPLL / LCJ)
Fri 08:20:20 PM 38.4840 -116.9540 96° East 545 627 37,000  Level FlightAware ADS-B (EPLL / LCJ)
Fri 08:21:26 PM 38.4669 -116.7448 96° East 545 627 37,000  Level FlightAware ADS-B (EPLL / LCJ)
Fri 08:22:26 PM 38.4511 -116.5528 96° East 547 629 37,000  Level FlightAware ADS-B (EPLL / LCJ)
Fri 08:23:11 PM 38.4389 -116.4067 96° East 548 631 37,000  Level FlightAware ADS-B (EPLL / LCJ)
Fri 08:24:07 PM 38.4244 -116.2392 96° East 547 629 37,000  Level Oakland Center
Fri 08:25:08 PM 38.4075 -116.0456 96° East 548 631 37,000  Level Oakland Center
Fri 08:26:27 PM 38.3856 -115.8158 97° East 546 628 37,000  Level Salt Lake Center
Fri 08:27:29 PM 38.3689 -115.6239 96° East 545 627 37,000  Level Salt Lake Center
Fri 08:28:30 PM 38.3511 -115.4319 97° East 545 627 37,000  Level Salt Lake Center
Fri 08:29:32 PM 38.3311 -115.2072 96° East 546 628 37,000  Level Salt Lake Center
Fri 08:35:10 PM 38.2736 -114.1151 96° East 547 629 37,000  Level FlightAware ADS-B
Fri 08:35:56 PM 38.2860 -113.9693 84° East 547 629 37,000  Level FlightAware ADS-B
Fri 08:36:38 PM 38.2969 -113.8351 84° East 548 631 37,000  Level FlightAware ADS-B
Fri 08:37:11 PM 38.3047 -113.7380 84° East 547 629 37,000  Level FlightAware ADS-B
Fri 08:37:41 PM 38.3129 -113.6346 84° East 548 631 37,000  Level FlightAware ADS-B
Fri 08:38:22 PM 38.3233 -113.5020 84° East 548 631 37,000  Level FlightAware ADS-B
Fri 08:39:05 PM 38.3340 -113.3631 84° East 549 632 37,000  Level FlightAware ADS-B
Fri 08:39:43 PM 38.3432 -113.2423 84° East 549 632 37,000  Level FlightAware ADS-B
Fri 08:40:29 PM 38.3498 -113.1007 87° East 550 633 37,000  Level FlightAware ADS-B
Fri 08:41:47 PM 38.3451 -112.8418 91° East 549 632 37,000  Level FlightAware ADS-B
Fri 08:42:20 PM 38.3415 -112.7353 92° East 549 632 37,000  Level FlightAware ADS-B
Fri 08:43:07 PM 38.3367 -112.5845 92° East 547 629 37,000  Level FlightAware ADS-B
Fri 08:43:46 PM 38.3326 -112.4593 92° East 547 629 37,000  Level FlightAware ADS-B
Fri 08:44:32 PM 38.3278 -112.3137 92° East 550 633 37,000  Level FlightAware ADS-B
Fri 08:45:18 PM 38.3224 -112.1610 93° East 549 632 37,000  Level FlightAware ADS-B
Fri 08:45:55 PM 38.3182 -112.0453 93° East 551 634 37,000  Level FlightAware ADS-B
Fri 08:46:39 PM 38.3128 -111.9010 93° East 550 633 37,000  Level FlightAware ADS-B
Fri 08:47:03 PM 38.3097 -111.8220 93° East 552 635 37,000  Level FlightAware ADS-B
Fri 08:47:22 PM 38.3074 -111.7624 93° East 552 635 37,000  Level FlightAware ADS-B
Fri 08:48:02 PM 38.3022 -111.6345 93° East 551 634 37,000  Level FlightAware ADS-B
Fri 08:49:03 PM 38.2939 -111.4349 93° East 553 636 37,000  Level FlightAware ADS-B
Fri 08:50:04 PM 38.2853 -111.2370 93° East 556 640 37,000  Level FlightAware ADS-B
Fri 08:50:53 PM 38.2782 -111.0779 93° East 554 638 37,000  Level FlightAware ADS-B
Fri 08:51:30 PM 38.2738 -110.9828 93° East 555 639 37,000  Level FlightAware ADS-B
Fri 08:52:10 PM 38.2669 -110.8377 93° East 554 638 37,000  Level FlightAware ADS-B
Fri 08:52:56 PM 38.2595 -110.6822 93° East 554 638 37,000  Level FlightAware ADS-B
Fri 08:53:38 PM 38.2524 -110.5391 94° East 557 641 37,000  Level FlightAware ADS-B
Fri 08:54:18 PM 38.2458 -110.4099 94° East 556 640 37,000  Level FlightAware ADS-B
Fri 08:54:57 PM 38.2398 -110.2932 94° East 555 639 37,000  Level FlightAware ADS-B (KGUC)
Fri 08:55:38 PM 38.2323 -110.1498 94° East 557 641 37,000  Level FlightAware ADS-B (KGUC)
Fri 08:56:13 PM 38.2262 -110.0354 94° East 556 640 37,000  Level FlightAware ADS-B
Fri 08:56:59 PM 38.2178 -109.8843 94° East 555 639 37,000  Level FlightAware ADS-B (KGUC)
Fri 08:57:39 PM 38.2104 -109.7546 94° East 556 640 37,000  Level FlightAware ADS-B (KGUC)
Fri 08:58:11 PM 38.2054 -109.6682 94° East 556 640 37,000  Level FlightAware ADS-B
Fri 08:58:58 PM 38.1962 -109.5099 94° East 559 643 37,000  Level FlightAware ADS-B
Fri 08:59:34 PM 38.1884 -109.3801 94° East 559 643 37,000  Level FlightAware ADS-B
Fri 09:00:19 PM 38.1794 -109.2318 94° East 559 643 37,000  Level FlightAware ADS-B (KGUC)
Fri 09:00:58 PM 38.1722 -109.1143 94° East 558 642 37,000  Level FlightAware ADS-B (EDXW / GWT)
Fri 09:01:29 PM 38.1653 -109.0047 95° East 558 642 37,000  Level FlightAware ADS-B (EDXW / GWT)
Fri 09:02:08 PM 38.1572 -108.8780 95° East 556 640 37,000  Level FlightAware ADS-B
Fri 09:02:41 PM 38.1504 -108.7716 95° East 557 641 37,000  Level FlightAware ADS-B (KGUC)
Fri 09:03:21 PM 38.1415 -108.6385 95° East 558 642 37,000  Level FlightAware ADS-B (KGUC)
Fri 09:04:01 PM 38.1328 -108.5084 95° East 559 643 37,000  Level FlightAware ADS-B (KGUC)
Fri 09:04:33 PM 38.1256 -108.4047 95° East 560 644 37,000  Level FlightAware ADS-B (EDXW / GWT)
Fri 09:05:16 PM 38.1187 -108.3033 95° East 560 644 37,000  Level FlightAware ADS-B
Fri 09:05:57 PM 38.1068 -108.1329 95° East 560 644 37,000  Level FlightAware ADS-B (KGUC)
Fri 09:06:27 PM 38.0995 -108.0312 95° East 560 644 37,000  Level FlightAware ADS-B
Fri 09:07:07 PM 38.0904 -107.9049 95° East 560 644 37,000  Level FlightAware ADS-B
Fri 09:07:44 PM 38.0815 -107.7826 95° East 558 642 37,000  Level FlightAware ADS-B
Fri 09:08:15 PM 38.0743 -107.6863 95° East 561 646 37,000  Level FlightAware ADS-B (EDXW / GWT)
Fri 09:08:51 PM 38.0649 -107.5621 95° East 562 647 37,000  Level FlightAware ADS-B
Fri 09:09:32 PM 38.0547 -107.4267 95° East 563 648 37,000  Level FlightAware ADS-B
Fri 09:10:15 PM 38.0436 -107.2864 96° East 560 644 37,000  Level FlightAware ADS-B
Fri 09:10:54 PM 38.0346 -107.1721 96° East 558 642 37,000  Level FlightAware ADS-B
Fri 09:11:35 PM 38.0230 -107.0274 96° East 560 644 37,000  Level FlightAware ADS-B
Fri 09:12:14 PM 38.0128 -106.8997 96° East 558 642 37,000  Level FlightAware ADS-B
Fri 09:12:49 PM 38.0034 -106.7844 96° East 559 643 37,000  Level FlightAware ADS-B (KGUC)
Fri 09:13:30 PM 37.9926 -106.6550 96° East 557 641 37,000  Level FlightAware ADS-B (KGUC)
Fri 09:14:09 PM 37.9817 -106.5258 96° East 558 642 37,000  Level FlightAware ADS-B (KGUC)
Fri 09:14:56 PM 37.9684 -106.3723 96° East 559 643 37,000  Level FlightAware ADS-B
Fri 09:15:34 PM 37.9579 -106.2495 96° East 560 644 37,000  Level FlightAware ADS-B (EGNT / NCL)
Fri 09:16:14 PM 37.9471 -106.1264 96° East 560 644 37,000  Level FlightAware ADS-B (EGNT / NCL)
Fri 09:16:30 PM 37.9456 -106.1096 96° East 560 644 37,000  Level FlightAware ADS-B (KGUC)
Fri 09:17:00 PM 37.9331 -105.9699 96° East 560 644 37,000  Level FlightAware ADS-B
Fri 09:17:35 PM 37.9231 -105.8581 96° East 560 644 37,000  Level FlightAware ADS-B (EGNT / NCL)
Fri 09:18:06 PM 37.9137 -105.7549 97° East 558 642 37,000  Level FlightAware ADS-B
Fri 09:18:36 PM 37.9053 -105.6647 97° East 556 640 37,000  Level FlightAware ADS-B (EGNT / NCL)
Fri 09:19:13 PM 37.8938 -105.5406 97° East 555 639 37,000  Level FlightAware ADS-B (EGNT / NCL)
Fri 09:19:52 PM 37.8819 -105.4141 97° East 556 640 37,000  Level FlightAware ADS-B
Fri 09:20:39 PM 37.8699 -105.2856 97° East 557 641 37,000  Level FlightAware ADS-B (EGNT / NCL)
Fri 09:21:19 PM 37.8551 -105.1344 97° East 553 636 37,000  Level FlightAware ADS-B (EGNT / NCL)
Fri 09:22:04 PM 37.8409 -104.9879 97° East 556 640 37,000  Level FlightAware ADS-B (EGNT / NCL)
Fri 09:22:45 PM 37.8281 -104.8582 97° East 554 638 37,000  Level FlightAware ADS-B (EGNT / NCL)
Fri 09:23:27 PM 37.8146 -104.7230 97° East 554 638 37,000  Level FlightAware ADS-B (EGNT / NCL)
Fri 09:24:09 PM 37.8009 -104.5866 97° East 552 635 37,000  Level FlightAware ADS-B (EGNT / NCL)
Fri 09:24:48 PM 37.7881 -104.4622 97° East 553 636 37,000  Level FlightAware ADS-B (EGNT / NCL)
Fri 09:25:29 PM 37.7751 -104.3365 97° East 550 633 37,000  Level FlightAware ADS-B (EGNT / NCL)
Fri 09:26:09 PM 37.7611 -104.2029 98° East 549 632 37,000  Level FlightAware ADS-B (EGNT / NCL)
Fri 09:26:50 PM 37.7480 -104.0804 98° East 548 631 37,000  Level FlightAware ADS-B (EGNT / NCL)
Fri 09:27:29 PM 37.7345 -103.9543 98° East 548 631 37,000  Level FlightAware ADS-B (EGNT / NCL)
Fri 09:28:11 PM 37.7198 -103.8178 98° East 552 635 37,000  Level FlightAware ADS-B (EGNT / NCL)
Fri 09:28:51 PM 37.7076 -103.7056 98° East 551 634 37,000  Level FlightAware ADS-B (EGNT / NCL)
Fri 09:29:30 PM 37.6951 -103.5916 98° East 549 632 37,000  Level FlightAware ADS-B (EGNT / NCL)
Fri 09:30:29 PM 37.6756 -103.4117 98° East 550 633 37,000  Level Kansas City Center
Fri 09:31:22 PM 37.6536 -103.2211 98° East 550 633 37,000  Level Denver Center
Fri 09:32:24 PM 37.6328 -103.0378 98° East 551 634 37,000  Level Denver Center
Fri 09:33:26 PM 37.6075 -102.8253 98° East 548 631 37,000  Level Denver Center
Fri 09:34:27 PM 37.5869 -102.6436 98° East 546 628 37,000  Level Denver Center
Fri 09:35:29 PM 37.5631 -102.4422 98° East 547 629 37,000  Level Denver Center
Fri 09:36:36 PM 37.5369 -102.2322 99° East 545 627 37,000  Level Kansas City Center
Fri 09:37:35 PM 37.5147 -102.0506 99° East 547 629 37,000  Level Kansas City Center
Fri 09:38:39 PM 37.4914 -101.8697 99° East 549 632 37,000  Level Kansas City Center
Fri 09:39:40 PM 37.4650 -101.6581 99° East 549 632 37,000  Level Kansas City Center
Fri 09:40:39 PM 37.4411 -101.4728 99° East 556 640 37,000  Level Kansas City Center
Fri 09:41:43 PM 37.4167 -101.2878 99° East 562 647 37,000  Level Kansas City Center
Fri 09:42:44 PM 37.3889 -101.0722 99° East 564 649 37,000  Level Kansas City Center
Fri 09:43:43 PM 37.3642 -100.8878 100° East 566 651 37,000  Level Kansas City Center
Fri 09:44:46 PM 37.3353 -100.6733 100° East 565 650 37,000  Level Kansas City Center
Fri 09:45:45 PM 37.3097 -100.4892 100° East 564 649 37,000  Level Kansas City Center
Fri 09:46:47 PM 37.2797 -100.2742 100° East 564 649 37,000  Level Kansas City Center
Fri 09:47:50 PM 37.2531 -100.0875 100° East 566 651 37,000  Level Kansas City Center
Fri 09:48:51 PM 37.2272 -99.9031 100° East 565 650 37,000  Level Kansas City Center
Fri 09:49:49 PM 37.1956 -99.6869 100° East 564 649 37,000  Level Kansas City Center
Fri 09:50:53 PM 37.1686 -99.5008 100° East 566 651 37,000  Level Kansas City Center
Fri 09:51:54 PM 37.1397 -99.3017 100° East 571 657 37,000  Level Kansas City Center
Fri 09:52:55 PM 37.1100 -99.1061 101° East 569 655 37,000  Level Kansas City Center
Fri 09:53:56 PM 37.0828 -98.9236 101° East 567 652 37,000  Level Kansas City Center
Fri 09:54:57 PM 37.0508 -98.7186 101° East 565 650 37,000  Level Kansas City Center
Fri 09:55:56 PM 37.0203 -98.5261 101° East 563 648 37,000  Level Kansas City Center
Fri 09:56:57 PM 36.9878 -98.3111 101° East 564 649 37,000  Level Kansas City Center
Fri 09:57:59 PM 36.9575 -98.1214 101° East 563 648 37,000  Level Kansas City Center
Fri 09:59:00 PM 36.9256 -97.9289 102° East 567 652 37,000  Level Kansas City Center
Fri 10:00:02 PM 36.8950 -97.7358 101° East 570 656 37,000  Level Kansas City Center
Fri 10:01:03 PM 36.8631 -97.5406 101° East 575 662 37,000  Level Kansas City Center
Fri 10:02:04 PM 36.8275 -97.3164 101° East 581 669 37,000  Level Kansas City Center
Fri 10:03:05 PM 36.7942 -97.1233 102° East 576 663 37,000  Level Kansas City Center
Fri 10:04:06 PM 36.7611 -96.9336 102° East 569 655 37,000  Level Kansas City Center
Fri 10:05:07 PM 36.7275 -96.7358 102° East 574 661 37,000  Level Kansas City Center
Fri 10:06:06 PM 36.6936 -96.5381 102° East 579 666 37,000  Level Kansas City Center
Fri 10:07:07 PM 36.6597 -96.3406 102° East 581 669 37,000  Level Kansas City Center
Fri 10:08:08 PM 36.6244 -96.1450 103° East 579 666 37,000  Level Kansas City Center
Fri 10:09:11 PM 36.5892 -95.9481 103° East 580 667 37,000 -281 Level Kansas City Center
Fri 10:15:15 PM 36.3699 -94.7595 103° East 561 646 35,000 -295 Descending FlightAware ADS-B
Fri 10:15:58 PM 36.3419 -94.6127 103° East 560 644 35,000  Level FlightAware ADS-B
Fri 10:16:43 PM 36.3148 -94.4723 103° East 559 643 35,000  Level FlightAware ADS-B
Fri 10:17:20 PM 36.2937 -94.3636 104° East 562 647 35,000  Level FlightAware ADS-B
Fri 10:19:26 PM 36.2184 -93.9612 103° East 572 658 35,000  Level FlightAware ADS-B
Fri 10:20:14 PM 36.1950 -93.8187 101° East 574 661 35,000  Level FlightAware ADS-B
Fri 10:20:54 PM 36.1711 -93.6767 102° East 572 658 35,000  Level FlightAware ADS-B
Fri 10:21:27 PM 36.1528 -93.5705 102° East 572 658 35,000  Level FlightAware ADS-B
Fri 10:22:14 PM 36.1286 -93.4320 102° East 572 658 35,000  Level FlightAware ADS-B
Fri 10:22:54 PM 36.1040 -93.2929 102° East 572 658 35,000  Level FlightAware ADS-B
Fri 10:23:34 PM 36.0829 -93.1743 102° East 570 656 35,000  Level FlightAware ADS-B
Fri 10:24:15 PM 36.0589 -93.0399 102° East 572 658 35,000  Level FlightAware ADS-B
Fri 10:24:55 PM 36.0357 -92.9106 102° East 574 661 35,000  Level FlightAware ADS-B
Fri 10:25:36 PM 36.0118 -92.7781 103° East 573 659 35,000 -296 Level FlightAware ADS-B
Fri 10:26:16 PM 35.9896 -92.6560 103° East 572 658 34,600 -1,704 Descending FlightAware ADS-B
Fri 10:26:57 PM 35.9662 -92.5278 103° East 571 657 32,700 -2,850 Descending FlightAware ADS-B
Fri 10:27:36 PM 35.9428 -92.3996 103° East 553 636 30,800 -2,593 Descending FlightAware ADS-B
Fri 10:28:18 PM 35.9202 -92.2769 103° East 527 606 29,200 -2,122 Descending FlightAware ADS-B
Fri 10:28:58 PM 35.8982 -92.1589 103° East 514 592 27,900 -2,025 Descending FlightAware ADS-B
Fri 10:29:38 PM 35.8763 -92.0427 103° East 512 589 26,500 -1,975 Descending FlightAware ADS-B
Fri 10:30:17 PM 35.8562 -91.9351 103° East 504 580 25,300 -1,800 Descending FlightAware ADS-B
Fri 10:30:58 PM 35.8347 -91.8215 103° East 500 575 24,100 -1,050 Descending FlightAware ADS-B
Fri 10:31:37 PM 35.8087 -91.7137 107° East 493 567 23,900 -1,275 Descending FlightAware ADS-B
Fri 10:32:18 PM 35.7719 -91.6086 113° Southeast 482 555 22,400 -2,240 Descending FlightAware ADS-B
Fri 10:32:52 PM 35.7410 -91.5257 115° Southeast 475 547 21,100 -2,085 Descending FlightAware ADS-B
Fri 10:34:39 PM 35.6465 -91.2716 115° Southeast 433 498 17,500 -1,824 Descending FlightAware ADS-B
Fri 10:35:20 PM 35.6186 -91.1969 115° Southeast 437 503 16,600 -2,059 Descending Memphis Center
Fri 10:36:21 PM 35.5700 -91.0661 115° Southeast 420 483 14,000 -2,132 Descending Memphis Center
Fri 10:37:21 PM 35.5211 -90.9381 115° Southeast 413 475 12,300 -1,537 Descending Memphis Center
Fri 10:38:22 PM 35.4750 -90.8161 115° Southeast 397 457 10,900 -934 Descending Memphis Center
Fri 10:39:23 PM 35.4342 -90.7097 115° Southeast 350 403 10,400 -541 Descending Memphis Center
Fri 10:40:24 PM 35.4158 -90.6086 103° East 311 358 9,800 -738 Descending Memphis Center
Fri 10:41:25 PM 35.3942 -90.5114 105° East 297 342 8,900 -934 Descending Memphis Center
Fri 10:42:26 PM 35.3706 -90.4189 107° East 287 330 7,900 -1,033 Descending Memphis Center
Fri 10:43:27 PM 35.3483 -90.3278 107° East 280 322 6,800 -992 Descending Memphis Center
Fri 10:44:27 PM 35.3269 -90.2378 106° East 275 316 5,900 -942 Descending Memphis Center
Fri 10:45:28 PM 35.3053 -90.1500 107° East 269 310 4,900 -1,125 Descending Memphis Center
Fri 10:46:19 PM 35.2833 -90.0667 108° East 262 302 3,800 -923 Descending KMEM
Fri 10:47:25 PM 35.2500 -90.0000 121° Southeast 226 260 3,100 -381 Descending KMEM
Fri 10:48:25 PM 35.2000 -89.9667 151° Southeast 182 209 3,000 -263 Descending KMEM
Fri 10:49:19 PM 35.1667 -89.9667 180° South 161 185 2,600 -579 Descending KMEM
Fri 10:50:19 PM 35.1333 -89.9667 180° South 136 157 1,900 -700 Descending KMEM
Fri 10:51:19 PM 35.1000 -89.9667 180° South 112 129 1,200 -700 Descending KMEM
Fri 10:54:00 PM 35.0424 -89.9767 180° South  Level Estimated

Login

Don't have an account? Register now (free) for customized features, flight alerts, and more!